sensor_id;sensor_type;location;lat;lon;timestamp;P1;durP1;ratioP1;P2;durP2;ratioP2
59653;SDS011;66556;52.008;5.432;2023-04-24T00:01:45;3.5;;;1.9;;
59653;SDS011;66556;52.008;5.432;2023-04-24T00:03:21;3.1;;;1.9;;
59653;SDS011;66556;52.008;5.432;2023-04-24T00:04:58;4.0;;;2.0;;
59653;SDS011;66556;52.008;5.432;2023-04-24T00:08:12;4.3;;;1.6;;
59653;SDS011;66556;52.008;5.432;2023-04-24T00:09:48;3.0;;;1.7;;
59653;SDS011;66556;52.008;5.432;2023-04-24T00:11:25;3.6;;;1.7;;
59653;SDS011;66556;52.008;5.432;2023-04-24T00:14:38;2.1;;;1.2;;
59653;SDS011;66556;52.008;5.432;2023-04-24T00:16:14;4.41;;;1.6;;
59653;SDS011;66556;52.008;5.432;2023-04-24T00:17:51;3.5;;;1.6;;
59653;SDS011;66556;52.008;5.432;2023-04-24T00:19:27;3.3;;;1.6;;
59653;SDS011;66556;52.008;5.432;2023-04-24T00:22:41;2.9;;;1.6;;
59653;SDS011;66556;52.008;5.432;2023-04-24T00:24:17;4.5;;;2.0;;
59653;SDS011;66556;52.008;5.432;2023-04-24T00:25:54;3.9;;;1.8;;
59653;SDS011;66556;52.008;5.432;2023-04-24T00:29:08;2.8;;;1.6;;
59653;SDS011;66556;52.008;5.432;2023-04-24T00:30:45;3.6;;;1.6;;
59653;SDS011;66556;52.008;5.432;2023-04-24T00:32:21;2.4;;;1.5;;
59653;SDS011;66556;52.008;5.432;2023-04-24T00:35:34;3.5;;;1.6;;
59653;SDS011;66556;52.008;5.432;2023-04-24T00:37:10;3.1;;;1.6;;
59653;SDS011;66556;52.008;5.432;2023-04-24T00:38:46;4.1;;;1.7;;
59653;SDS011;66556;52.008;5.432;2023-04-24T00:40:23;2.5;;;1.4;;
59653;SDS011;66556;52.008;5.432;2023-04-24T00:43:36;3.6;;;1.6;;
59653;SDS011;66556;52.008;5.432;2023-04-24T00:45:12;2.1;;;1.4;;
59653;SDS011;66556;52.008;5.432;2023-04-24T00:46:49;3.4;;;1.8;;
59653;SDS011;66556;52.008;5.432;2023-04-24T00:50:04;2.5;;;1.5;;
59653;SDS011;66556;52.008;5.432;2023-04-24T00:51:42;3.1;;;1.5;;
59653;SDS011;66556;52.008;5.432;2023-04-24T00:53:19;1.8;;;1.4;;
59653;SDS011;66556;52.008;5.432;2023-04-24T00:54:56;3.2;;;1.7;;
59653;SDS011;66556;52.008;5.432;2023-04-24T00:58:10;2.8;;;1.7;;
59653;SDS011;66556;52.008;5.432;2023-04-24T00:59:47;2.7;;;1.7;;
59653;SDS011;66556;52.008;5.432;2023-04-24T01:01:23;2.7;;;1.7;;
59653;SDS011;66556;52.008;5.432;2023-04-24T01:04:41;1.6;;;1.4;;
59653;SDS011;66556;52.008;5.432;2023-04-24T01:06:18;1.6;;;1.3;;
59653;SDS011;66556;52.008;5.432;2023-04-24T01:07:56;2.1;;;1.5;;
59653;SDS011;66556;52.008;5.432;2023-04-24T01:11:11;3.7;;;1.3;;
59653;SDS011;66556;52.008;5.432;2023-04-24T01:12:47;1.7;;;1.4;;
59653;SDS011;66556;52.008;5.432;2023-04-24T01:14:23;2.7;;;1.5;;
59653;SDS011;66556;52.008;5.432;2023-04-24T01:16:02;3.5;;;1.7;;
59653;SDS011;66556;52.008;5.432;2023-04-24T01:19:15;2.7;;;1.5;;
59653;SDS011;66556;52.008;5.432;2023-04-24T01:20:57;2.21;;;1.6;;
59653;SDS011;66556;52.008;5.432;2023-04-24T01:22:40;2.4;;;1.6;;
59653;SDS011;66556;52.008;5.432;2023-04-24T01:24:17;1.7;;;1.6;;
59653;SDS011;66556;52.008;5.432;2023-04-24T01:27:31;1.9;;;1.6;;
59653;SDS011;66556;52.008;5.432;2023-04-24T01:29:08;2.4;;;1.9;;
59653;SDS011;66556;52.008;5.432;2023-04-24T01:30:45;2.8;;;2.0;;
59653;SDS011;66556;52.008;5.432;2023-04-24T01:33:59;1.9;;;1.6;;
59653;SDS011;66556;52.008;5.432;2023-04-24T01:35:36;2.4;;;1.7;;
59653;SDS011;66556;52.008;5.432;2023-04-24T01:37:13;2.6;;;1.8;;
59653;SDS011;66556;52.008;5.432;2023-04-24T01:40:27;2.5;;;1.9;;
59653;SDS011;66556;52.008;5.432;2023-04-24T01:42:05;2.0;;;1.8;;
59653;SDS011;66556;52.008;5.432;2023-04-24T01:43:41;3.7;;;2.21;;
59653;SDS011;66556;52.008;5.432;2023-04-24T01:45:18;3.2;;;2.21;;
59653;SDS011;66556;52.008;5.432;2023-04-24T01:48:32;3.7;;;2.31;;
59653;SDS011;66556;52.008;5.432;2023-04-24T01:50:10;2.6;;;2.4;;
59653;SDS011;66556;52.008;5.432;2023-04-24T01:51:47;2.7;;;2.5;;
59653;SDS011;66556;52.008;5.432;2023-04-24T01:55:02;5.9;;;2.6;;
59653;SDS011;66556;52.008;5.432;2023-04-24T01:56:40;2.6;;;2.4;;
59653;SDS011;66556;52.008;5.432;2023-04-24T01:58:19;4.1;;;2.6;;
59653;SDS011;66556;52.008;5.432;2023-04-24T01:59:56;3.0;;;2.7;;
59653;SDS011;66556;52.008;5.432;2023-04-24T02:03:11;3.8;;;3.1;;
59653;SDS011;66556;52.008;5.432;2023-04-24T02:04:47;4.0;;;3.6;;
59653;SDS011;66556;52.008;5.432;2023-04-24T02:06:24;4.2;;;3.8;;
59653;SDS011;66556;52.008;5.432;2023-04-24T02:09:37;5.11;;;4.1;;
59653;SDS011;66556;52.008;5.432;2023-04-24T02:11:13;5.0;;;4.5;;
59653;SDS011;66556;52.008;5.432;2023-04-24T02:12:49;4.7;;;4.1;;
59653;SDS011;66556;52.008;5.432;2023-04-24T02:14:26;4.5;;;4.1;;
59653;SDS011;66556;52.008;5.432;2023-04-24T02:17:39;5.2;;;4.5;;
59653;SDS011;66556;52.008;5.432;2023-04-24T02:19:16;5.7;;;4.8;;
59653;SDS011;66556;52.008;5.432;2023-04-24T02:20:53;5.9;;;4.5;;
59653;SDS011;66556;52.008;5.432;2023-04-24T02:24:05;7.3;;;5.3;;
59653;SDS011;66556;52.008;5.432;2023-04-24T02:25:42;4.8;;;4.2;;
59653;SDS011;66556;52.008;5.432;2023-04-24T02:27:18;5.2;;;4.5;;
59653;SDS011;66556;52.008;5.432;2023-04-24T02:30:32;5.11;;;4.41;;
59653;SDS011;66556;52.008;5.432;2023-04-24T02:32:09;5.8;;;3.5;;
59653;SDS011;66556;52.008;5.432;2023-04-24T02:33:45;4.2;;;3.5;;
59653;SDS011;66556;52.008;5.432;2023-04-24T02:35:21;6.9;;;4.61;;
59653;SDS011;66556;52.008;5.432;2023-04-24T02:38:35;4.8;;;4.3;;
59653;SDS011;66556;52.008;5.432;2023-04-24T02:40:12;4.8;;;4.3;;
59653;SDS011;66556;52.008;5.432;2023-04-24T02:41:49;6.9;;;5.6;;
59653;SDS011;66556;52.008;5.432;2023-04-24T02:45:02;8.6;;;6.1;;
59653;SDS011;66556;52.008;5.432;2023-04-24T02:46:40;7.1;;;5.9;;
59653;SDS011;66556;52.008;5.432;2023-04-24T02:48:16;7.0;;;6.3;;
59653;SDS011;66556;52.008;5.432;2023-04-24T02:51:29;6.9;;;6.2;;
59653;SDS011;66556;52.008;5.432;2023-04-24T02:53:06;7.4;;;6.6;;
59653;SDS011;66556;52.008;5.432;2023-04-24T02:54:43;8.5;;;6.3;;
59653;SDS011;66556;52.008;5.432;2023-04-24T02:56:19;7.2;;;6.1;;
59653;SDS011;66556;52.008;5.432;2023-04-24T02:59:32;7.5;;;6.2;;
59653;SDS011;66556;52.008;5.432;2023-04-24T03:01:09;8.6;;;6.7;;
59653;SDS011;66556;52.008;5.432;2023-04-24T03:02:46;7.5;;;6.4;;
59653;SDS011;66556;52.008;5.432;2023-04-24T03:05:59;6.9;;;6.0;;
59653;SDS011;66556;52.008;5.432;2023-04-24T03:07:35;9.31;;;6.5;;
59653;SDS011;66556;52.008;5.432;2023-04-24T03:09:12;7.0;;;5.8;;
59653;SDS011;66556;52.008;5.432;2023-04-24T03:12:26;8.2;;;6.0;;
59653;SDS011;66556;52.008;5.432;2023-04-24T03:14:03;7.3;;;6.3;;
59653;SDS011;66556;52.008;5.432;2023-04-24T03:15:40;9.4;;;7.4;;
59653;SDS011;66556;52.008;5.432;2023-04-24T03:17:17;7.9;;;7.0;;
59653;SDS011;66556;52.008;5.432;2023-04-24T03:20:30;7.2;;;6.5;;
59653;SDS011;66556;52.008;5.432;2023-04-24T03:22:08;9.5;;;7.2;;
59653;SDS011;66556;52.008;5.432;2023-04-24T03:23:44;8.31;;;7.4;;
59653;SDS011;66556;52.008;5.432;2023-04-24T03:26:58;8.71;;;7.8;;
59653;SDS011;66556;52.008;5.432;2023-04-24T03:28:35;9.4;;;8.4;;
59653;SDS011;66556;52.008;5.432;2023-04-24T03:30:12;10.3;;;9.21;;
59653;SDS011;66556;52.008;5.432;2023-04-24T03:31:49;10.6;;;8.9;;
59653;SDS011;66556;52.008;5.432;2023-04-24T03:35:03;11.8;;;9.5;;
59653;SDS011;66556;52.008;5.432;2023-04-24T03:36:39;12.0;;;9.6;;
59653;SDS011;66556;52.008;5.432;2023-04-24T03:38:16;13.5;;;10.7;;
59653;SDS011;66556;52.008;5.432;2023-04-24T03:41:29;16.0;;;12.2;;
59653;SDS011;66556;52.008;5.432;2023-04-24T03:43:05;17.11;;;13.2;;
59653;SDS011;66556;52.008;5.432;2023-04-24T03:44:41;19.8;;;15.3;;
59653;SDS011;66556;52.008;5.432;2023-04-24T03:47:56;16.8;;;14.4;;
59653;SDS011;66556;52.008;5.432;2023-04-24T03:49:33;19.61;;;16.61;;
59653;SDS011;66556;52.008;5.432;2023-04-24T03:51:09;24.9;;;18.11;;
59653;SDS011;66556;52.008;5.432;2023-04-24T03:52:46;23.3;;;17.91;;
59653;SDS011;66556;52.008;5.432;2023-04-24T03:55:59;19.61;;;17.5;;
59653;SDS011;66556;52.008;5.432;2023-04-24T03:57:35;25.6;;;19.7;;
59653;SDS011;66556;52.008;5.432;2023-04-24T03:59:12;26.2;;;18.8;;
59653;SDS011;66556;52.008;5.432;2023-04-24T04:02:26;25.0;;;18.61;;
59653;SDS011;66556;52.008;5.432;2023-04-24T04:04:02;26.6;;;19.61;;
59653;SDS011;66556;52.008;5.432;2023-04-24T04:05:38;17.2;;;13.5;;
59653;SDS011;66556;52.008;5.432;2023-04-24T04:08:52;14.5;;;12.7;;
59653;SDS011;66556;52.008;5.432;2023-04-24T04:10:29;17.7;;;13.7;;
59653;SDS011;66556;52.008;5.432;2023-04-24T04:12:06;16.11;;;13.4;;
59653;SDS011;66556;52.008;5.432;2023-04-24T04:13:44;11.8;;;9.71;;
59653;SDS011;66556;52.008;5.432;2023-04-24T04:16:58;10.0;;;7.5;;
59653;SDS011;66556;52.008;5.432;2023-04-24T04:18:34;7.0;;;6.0;;
59653;SDS011;66556;52.008;5.432;2023-04-24T04:20:11;6.8;;;5.9;;
59653;SDS011;66556;52.008;5.432;2023-04-24T04:23:23;8.0;;;6.4;;
59653;SDS011;66556;52.008;5.432;2023-04-24T04:25:00;10.8;;;7.7;;
59653;SDS011;66556;52.008;5.432;2023-04-24T04:26:37;4.8;;;4.3;;
59653;SDS011;66556;52.008;5.432;2023-04-24T04:29:51;6.7;;;4.3;;
59653;SDS011;66556;52.008;5.432;2023-04-24T04:31:27;5.11;;;3.8;;
59653;SDS011;66556;52.008;5.432;2023-04-24T04:33:03;4.8;;;3.9;;
59653;SDS011;66556;52.008;5.432;2023-04-24T04:34:39;4.91;;;3.2;;
59653;SDS011;66556;52.008;5.432;2023-04-24T04:37:51;5.3;;;4.0;;
59653;SDS011;66556;52.008;5.432;2023-04-24T04:39:27;3.6;;;3.1;;
59653;SDS011;66556;52.008;5.432;2023-04-24T04:41:04;5.0;;;4.1;;
59653;SDS011;66556;52.008;5.432;2023-04-24T04:44:16;5.3;;;3.9;;
59653;SDS011;66556;52.008;5.432;2023-04-24T04:45:52;5.2;;;4.3;;
59653;SDS011;66556;52.008;5.432;2023-04-24T04:47:28;5.4;;;4.7;;
59653;SDS011;66556;52.008;5.432;2023-04-24T04:50:40;4.41;;;4.0;;
59653;SDS011;66556;52.008;5.432;2023-04-24T04:52:17;5.4;;;4.41;;
59653;SDS011;66556;52.008;5.432;2023-04-24T04:53:53;5.6;;;3.9;;
59653;SDS011;66556;52.008;5.432;2023-04-24T04:55:30;6.7;;;4.41;;
59653;SDS011;66556;52.008;5.432;2023-04-24T04:58:42;5.5;;;4.7;;
59653;SDS011;66556;52.008;5.432;2023-04-24T05:00:18;5.6;;;4.1;;
59653;SDS011;66556;52.008;5.432;2023-04-24T05:01:55;4.5;;;4.1;;
59653;SDS011;66556;52.008;5.432;2023-04-24T05:05:08;6.8;;;4.91;;
59653;SDS011;66556;52.008;5.432;2023-04-24T05:06:44;6.2;;;4.7;;
59653;SDS011;66556;52.008;5.432;2023-04-24T05:08:21;5.7;;;4.91;;
59653;SDS011;66556;52.008;5.432;2023-04-24T05:11:33;4.3;;;3.8;;
59653;SDS011;66556;52.008;5.432;2023-04-24T05:13:09;4.91;;;4.41;;
59653;SDS011;66556;52.008;5.432;2023-04-24T05:14:45;6.5;;;4.91;;
59653;SDS011;66556;52.008;5.432;2023-04-24T05:17:57;5.4;;;4.61;;
59653;SDS011;66556;52.008;5.432;2023-04-24T05:19:34;5.3;;;4.3;;
59653;SDS011;66556;52.008;5.432;2023-04-24T05:21:10;5.2;;;3.9;;
59653;SDS011;66556;52.008;5.432;2023-04-24T05:22:47;4.8;;;4.2;;
59653;SDS011;66556;52.008;5.432;2023-04-24T05:25:59;4.41;;;4.0;;
59653;SDS011;66556;52.008;5.432;2023-04-24T05:27:35;4.91;;;4.1;;
59653;SDS011;66556;52.008;5.432;2023-04-24T05:29:12;3.7;;;3.3;;
59653;SDS011;66556;52.008;5.432;2023-04-24T05:32:24;3.7;;;3.3;;
59653;SDS011;66556;52.008;5.432;2023-04-24T05:34:00;5.11;;;3.5;;
59653;SDS011;66556;52.008;5.432;2023-04-24T05:35:37;4.91;;;3.6;;
59653;SDS011;66556;52.008;5.432;2023-04-24T05:38:49;6.2;;;3.7;;
59653;SDS011;66556;52.008;5.432;2023-04-24T05:40:25;3.7;;;3.3;;
59653;SDS011;66556;52.008;5.432;2023-04-24T05:42:01;5.4;;;3.6;;
59653;SDS011;66556;52.008;5.432;2023-04-24T05:43:38;3.7;;;3.3;;
59653;SDS011;66556;52.008;5.432;2023-04-24T05:46:51;4.5;;;3.6;;
59653;SDS011;66556;52.008;5.432;2023-04-24T05:48:27;5.0;;;3.9;;
59653;SDS011;66556;52.008;5.432;2023-04-24T05:50:04;6.6;;;4.41;;
59653;SDS011;66556;52.008;5.432;2023-04-24T05:53:17;6.4;;;4.7;;
59653;SDS011;66556;52.008;5.432;2023-04-24T05:54:53;5.8;;;4.2;;
59653;SDS011;66556;52.008;5.432;2023-04-24T05:56:29;5.2;;;4.41;;
59653;SDS011;66556;52.008;5.432;2023-04-24T05:59:42;6.5;;;4.61;;
59653;SDS011;66556;52.008;5.432;2023-04-24T06:01:19;6.7;;;4.7;;
59653;SDS011;66556;52.008;5.432;2023-04-24T06:02:55;7.2;;;5.5;;
59653;SDS011;66556;52.008;5.432;2023-04-24T06:04:31;5.9;;;5.0;;
59653;SDS011;66556;52.008;5.432;2023-04-24T06:07:44;10.21;;;6.5;;
59653;SDS011;66556;52.008;5.432;2023-04-24T06:09:20;12.2;;;7.6;;
59653;SDS011;66556;52.008;5.432;2023-04-24T06:10:56;11.8;;;7.7;;
59653;SDS011;66556;52.008;5.432;2023-04-24T06:14:09;10.1;;;7.2;;
59653;SDS011;66556;52.008;5.432;2023-04-24T06:15:45;5.8;;;4.91;;
59653;SDS011;66556;52.008;5.432;2023-04-24T06:17:21;3.8;;;3.2;;
59653;SDS011;66556;52.008;5.432;2023-04-24T06:20:33;4.2;;;2.9;;
59653;SDS011;66556;52.008;5.432;2023-04-24T06:22:09;3.5;;;2.1;;
59653;SDS011;66556;52.008;5.432;2023-04-24T06:23:45;2.5;;;1.5;;
59653;SDS011;66556;52.008;5.432;2023-04-24T06:27:01;2.4;;;1.8;;
59653;SDS011;66556;52.008;5.432;2023-04-24T06:28:37;2.31;;;1.4;;
59653;SDS011;66556;52.008;5.432;2023-04-24T06:30:13;1.7;;;1.2;;
59653;SDS011;66556;52.008;5.432;2023-04-24T06:31:50;4.0;;;1.4;;
59653;SDS011;66556;52.008;5.432;2023-04-24T06:35:02;3.6;;;1.4;;
59653;SDS011;66556;52.008;5.432;2023-04-24T06:36:39;2.9;;;1.2;;
59653;SDS011;66556;52.008;5.432;2023-04-24T06:38:15;1.8;;;0.8;;
59653;SDS011;66556;52.008;5.432;2023-04-24T06:41:28;1.4;;;1.0;;
59653;SDS011;66556;52.008;5.432;2023-04-24T06:43:04;1.8;;;1.11;;
59653;SDS011;66556;52.008;5.432;2023-04-24T06:44:40;3.3;;;1.4;;
59653;SDS011;66556;52.008;5.432;2023-04-24T06:47:52;2.9;;;1.3;;
59653;SDS011;66556;52.008;5.432;2023-04-24T06:49:28;2.21;;;1.8;;
59653;SDS011;66556;52.008;5.432;2023-04-24T06:51:05;3.1;;;2.0;;
59653;SDS011;66556;52.008;5.432;2023-04-24T06:52:41;3.7;;;2.1;;
59653;SDS011;66556;52.008;5.432;2023-04-24T06:55:53;1.9;;;1.7;;
59653;SDS011;66556;52.008;5.432;2023-04-24T06:57:29;3.7;;;2.1;;
59653;SDS011;66556;52.008;5.432;2023-04-24T06:59:06;3.8;;;2.1;;
59653;SDS011;66556;52.008;5.432;2023-04-24T07:02:18;3.9;;;2.7;;
59653;SDS011;66556;52.008;5.432;2023-04-24T07:03:55;4.0;;;3.1;;
59653;SDS011;66556;52.008;5.432;2023-04-24T07:05:31;6.0;;;3.4;;
59653;SDS011;66556;52.008;5.432;2023-04-24T07:08:43;5.2;;;3.7;;
59653;SDS011;66556;52.008;5.432;2023-04-24T07:10:19;5.7;;;4.41;;
59653;SDS011;66556;52.008;5.432;2023-04-24T07:11:55;5.9;;;4.8;;
59653;SDS011;66556;52.008;5.432;2023-04-24T07:13:31;7.6;;;5.3;;
59653;SDS011;66556;52.008;5.432;2023-04-24T07:16:45;11.8;;;7.5;;
59653;SDS011;66556;52.008;5.432;2023-04-24T07:18:22;14.0;;;10.1;;
59653;SDS011;66556;52.008;5.432;2023-04-24T07:19:58;16.8;;;10.4;;
59653;SDS011;66556;52.008;5.432;2023-04-24T07:23:10;17.7;;;11.4;;
59653;SDS011;66556;52.008;5.432;2023-04-24T07:24:46;16.3;;;11.0;;
59653;SDS011;66556;52.008;5.432;2023-04-24T07:26:22;18.8;;;12.7;;
59653;SDS011;66556;52.008;5.432;2023-04-24T07:29:36;19.91;;;12.2;;
59653;SDS011;66556;52.008;5.432;2023-04-24T07:31:12;16.8;;;10.9;;
59653;SDS011;66556;52.008;5.432;2023-04-24T07:32:49;23.6;;;12.2;;
59653;SDS011;66556;52.008;5.432;2023-04-24T07:36:01;19.8;;;12.0;;
59653;SDS011;66556;52.008;5.432;2023-04-24T07:37:37;20.3;;;12.9;;
59653;SDS011;66556;52.008;5.432;2023-04-24T07:39:14;18.11;;;11.3;;
59653;SDS011;66556;52.008;5.432;2023-04-24T07:40:51;20.5;;;12.3;;
59653;SDS011;66556;52.008;5.432;2023-04-24T07:44:04;21.3;;;12.3;;
59653;SDS011;66556;52.008;5.432;2023-04-24T07:45:40;18.7;;;12.2;;
59653;SDS011;66556;52.008;5.432;2023-04-24T07:47:16;22.1;;;12.4;;
59653;SDS011;66556;52.008;5.432;2023-04-24T07:50:29;21.2;;;11.9;;
59653;SDS011;66556;52.008;5.432;2023-04-24T07:52:05;22.4;;;12.4;;
59653;SDS011;66556;52.008;5.432;2023-04-24T07:53:42;17.11;;;11.1;;
59653;SDS011;66556;52.008;5.432;2023-04-24T07:56:56;22.9;;;11.8;;
59653;SDS011;66556;52.008;5.432;2023-04-24T07:58:32;19.5;;;11.7;;
59653;SDS011;66556;52.008;5.432;2023-04-24T08:00:08;18.41;;;11.4;;
59653;SDS011;66556;52.008;5.432;2023-04-24T08:01:45;18.3;;;10.5;;
59653;SDS011;66556;52.008;5.432;2023-04-24T08:04:57;21.7;;;11.4;;
59653;SDS011;66556;52.008;5.432;2023-04-24T08:06:34;24.4;;;12.8;;
59653;SDS011;66556;52.008;5.432;2023-04-24T08:08:10;20.9;;;11.5;;
59653;SDS011;66556;52.008;5.432;2023-04-24T08:11:22;22.4;;;11.7;;
59653;SDS011;66556;52.008;5.432;2023-04-24T08:12:59;23.3;;;11.1;;
59653;SDS011;66556;52.008;5.432;2023-04-24T08:14:35;22.1;;;11.6;;
59653;SDS011;66556;52.008;5.432;2023-04-24T08:17:47;26.4;;;10.21;;
59653;SDS011;66556;52.008;5.432;2023-04-24T08:19:24;19.7;;;9.6;;
59653;SDS011;66556;52.008;5.432;2023-04-24T08:21:00;24.4;;;10.5;;
59653;SDS011;66556;52.008;5.432;2023-04-24T08:22:36;22.4;;;8.81;;
59653;SDS011;66556;52.008;5.432;2023-04-24T08:25:48;29.2;;;8.71;;
59653;SDS011;66556;52.008;5.432;2023-04-24T08:27:25;29.2;;;8.71;;
59653;SDS011;66556;52.008;5.432;2023-04-24T08:29:01;27.7;;;7.4;;
59653;SDS011;66556;52.008;5.432;2023-04-24T08:32:15;23.6;;;7.9;;
59653;SDS011;66556;52.008;5.432;2023-04-24T08:33:51;29.1;;;7.6;;
59653;SDS011;66556;52.008;5.432;2023-04-24T08:35:27;25.5;;;6.8;;
59653;SDS011;66556;52.008;5.432;2023-04-24T08:38:39;27.4;;;7.0;;
59653;SDS011;66556;52.008;5.432;2023-04-24T08:40:16;30.3;;;6.7;;
59653;SDS011;66556;52.008;5.432;2023-04-24T08:41:52;30.1;;;7.3;;
59653;SDS011;66556;52.008;5.432;2023-04-24T08:43:29;24.8;;;6.5;;
59653;SDS011;66556;52.008;5.432;2023-04-24T08:46:47;25.2;;;5.4;;
59653;SDS011;66556;52.008;5.432;2023-04-24T08:48:24;27.4;;;6.1;;
59653;SDS011;66556;52.008;5.432;2023-04-24T08:50:01;25.5;;;6.0;;
59653;SDS011;66556;52.008;5.432;2023-04-24T08:53:15;28.6;;;5.5;;
59653;SDS011;66556;52.008;5.432;2023-04-24T08:54:53;22.0;;;4.91;;
59653;SDS011;66556;52.008;5.432;2023-04-24T08:56:30;21.0;;;4.91;;
59653;SDS011;66556;52.008;5.432;2023-04-24T08:58:10;20.9;;;4.91;;
59653;SDS011;66556;52.008;5.432;2023-04-24T09:01:22;21.1;;;4.8;;
59653;SDS011;66556;52.008;5.432;2023-04-24T09:03:01;22.6;;;4.91;;
59653;SDS011;66556;52.008;5.432;2023-04-24T09:04:40;22.2;;;4.41;;
59653;SDS011;66556;52.008;5.432;2023-04-24T09:07:57;20.41;;;4.8;;
59653;SDS011;66556;52.008;5.432;2023-04-24T09:09:38;20.7;;;4.0;;
59653;SDS011;66556;52.008;5.432;2023-04-24T09:11:15;15.3;;;4.1;;
59653;SDS011;66556;52.008;5.432;2023-04-24T09:12:52;18.0;;;4.1;;
59653;SDS011;66556;52.008;5.432;2023-04-24T09:16:06;17.7;;;4.2;;
59653;SDS011;66556;52.008;5.432;2023-04-24T09:17:43;19.5;;;3.9;;
59653;SDS011;66556;52.008;5.432;2023-04-24T09:19:19;17.11;;;3.7;;
59653;SDS011;66556;52.008;5.432;2023-04-24T09:22:34;17.8;;;3.7;;
59653;SDS011;66556;52.008;5.432;2023-04-24T09:24:14;14.5;;;3.8;;
59653;SDS011;66556;52.008;5.432;2023-04-24T09:25:53;15.4;;;3.5;;
59653;SDS011;66556;52.008;5.432;2023-04-24T09:27:31;16.4;;;3.5;;
59653;SDS011;66556;52.008;5.432;2023-04-24T09:30:56;17.2;;;3.6;;
59653;SDS011;66556;52.008;5.432;2023-04-24T09:32:38;15.1;;;3.7;;
59653;SDS011;66556;52.008;5.432;2023-04-24T09:34:18;19.91;;;4.1;;
59653;SDS011;66556;52.008;5.432;2023-04-24T09:35:58;13.2;;;3.4;;
59653;SDS011;66556;52.008;5.432;2023-04-24T09:39:14;15.2;;;3.5;;
59653;SDS011;66556;52.008;5.432;2023-04-24T09:40:51;17.91;;;4.1;;
59653;SDS011;66556;52.008;5.432;2023-04-24T09:42:28;21.9;;;3.9;;
59653;SDS011;66556;52.008;5.432;2023-04-24T09:45:48;16.8;;;3.5;;
59653;SDS011;66556;52.008;5.432;2023-04-24T09:47:25;17.8;;;3.9;;
59653;SDS011;66556;52.008;5.432;2023-04-24T09:49:07;17.5;;;3.3;;
59653;SDS011;66556;52.008;5.432;2023-04-24T09:50:45;11.4;;;3.2;;
59653;SDS011;66556;52.008;5.432;2023-04-24T09:53:58;14.5;;;3.4;;
59653;SDS011;66556;52.008;5.432;2023-04-24T09:55:38;13.3;;;3.3;;
59653;SDS011;66556;52.008;5.432;2023-04-24T09:57:15;14.6;;;3.4;;
59653;SDS011;66556;52.008;5.432;2023-04-24T09:58:51;13.2;;;3.5;;
59653;SDS011;66556;52.008;5.432;2023-04-24T10:02:15;13.9;;;3.2;;
59653;SDS011;66556;52.008;5.432;2023-04-24T10:03:53;11.5;;;2.9;;
59653;SDS011;66556;52.008;5.432;2023-04-24T10:05:30;13.2;;;3.2;;
59653;SDS011;66556;52.008;5.432;2023-04-24T10:08:43;11.4;;;2.8;;
59653;SDS011;66556;52.008;5.432;2023-04-24T10:10:20;10.21;;;2.9;;
59653;SDS011;66556;52.008;5.432;2023-04-24T10:13:35;9.5;;;2.21;;
59653;SDS011;66556;52.008;5.432;2023-04-24T10:16:49;10.7;;;2.5;;
59653;SDS011;66556;52.008;5.432;2023-04-24T10:18:28;7.9;;;2.31;;
59653;SDS011;66556;52.008;5.432;2023-04-24T10:20:06;12.0;;;2.7;;
59653;SDS011;66556;52.008;5.432;2023-04-24T10:23:20;7.9;;;2.1;;
59653;SDS011;66556;52.008;5.432;2023-04-24T10:24:58;9.21;;;1.9;;
59653;SDS011;66556;52.008;5.432;2023-04-24T10:26:35;12.3;;;2.5;;
59653;SDS011;66556;52.008;5.432;2023-04-24T10:28:11;10.6;;;2.4;;
59653;SDS011;66556;52.008;5.432;2023-04-24T10:31:30;11.2;;;3.0;;
59653;SDS011;66556;52.008;5.432;2023-04-24T10:33:07;8.9;;;2.6;;
59653;SDS011;66556;52.008;5.432;2023-04-24T10:34:44;8.2;;;2.5;;
59653;SDS011;66556;52.008;5.432;2023-04-24T10:37:59;10.5;;;2.4;;
59653;SDS011;66556;52.008;5.432;2023-04-24T10:39:41;8.71;;;2.31;;
59653;SDS011;66556;52.008;5.432;2023-04-24T10:41:17;10.6;;;2.4;;
59653;SDS011;66556;52.008;5.432;2023-04-24T10:42:54;7.8;;;2.1;;
59653;SDS011;66556;52.008;5.432;2023-04-24T10:46:16;11.4;;;1.9;;
59653;SDS011;66556;52.008;5.432;2023-04-24T10:47:57;7.4;;;1.9;;
59653;SDS011;66556;52.008;5.432;2023-04-24T10:49:34;7.5;;;1.6;;
59653;SDS011;66556;52.008;5.432;2023-04-24T10:51:12;6.4;;;1.2;;
59653;SDS011;66556;52.008;5.432;2023-04-24T10:54:26;5.4;;;1.3;;
59653;SDS011;66556;52.008;5.432;2023-04-24T10:56:04;5.0;;;1.3;;
59653;SDS011;66556;52.008;5.432;2023-04-24T10:58:00;8.4;;;1.7;;
59653;SDS011;66556;52.008;5.432;2023-04-24T10:59:38;5.9;;;1.7;;
59653;SDS011;66556;52.008;5.432;2023-04-24T11:03:12;6.1;;;1.3;;
59653;SDS011;66556;52.008;5.432;2023-04-24T11:05:02;9.0;;;1.6;;
59653;SDS011;66556;52.008;5.432;2023-04-24T11:06:39;7.5;;;1.5;;
59653;SDS011;66556;52.008;5.432;2023-04-24T11:08:21;5.7;;;1.11;;
59653;SDS011;66556;52.008;5.432;2023-04-24T11:10:00;6.4;;;1.3;;
59653;SDS011;66556;52.008;5.432;2023-04-24T11:13:15;5.4;;;1.3;;
59653;SDS011;66556;52.008;5.432;2023-04-24T11:14:59;4.8;;;1.2;;
59653;SDS011;66556;52.008;5.432;2023-04-24T11:16:44;5.4;;;1.3;;
59653;SDS011;66556;52.008;5.432;2023-04-24T11:18:36;7.3;;;1.2;;
59653;SDS011;66556;52.008;5.432;2023-04-24T11:21:55;6.7;;;1.11;;
59653;SDS011;66556;52.008;5.432;2023-04-24T11:23:35;5.3;;;1.2;;
59653;SDS011;66556;52.008;5.432;2023-04-24T11:25:11;5.11;;;1.11;;
59653;SDS011;66556;52.008;5.432;2023-04-24T11:26:47;5.9;;;0.9;;
59653;SDS011;66556;52.008;5.432;2023-04-24T11:30:00;5.0;;;0.9;;
59653;SDS011;66556;52.008;5.432;2023-04-24T11:31:38;2.4;;;0.8;;
59653;SDS011;66556;52.008;5.432;2023-04-24T11:33:16;3.0;;;0.9;;
59653;SDS011;66556;52.008;5.432;2023-04-24T11:36:35;5.2;;;0.9;;
59653;SDS011;66556;52.008;5.432;2023-04-24T11:38:11;5.4;;;1.2;;
59653;SDS011;66556;52.008;5.432;2023-04-24T11:39:50;6.5;;;1.3;;
59653;SDS011;66556;52.008;5.432;2023-04-24T11:41:29;4.91;;;1.0;;
59653;SDS011;66556;52.008;5.432;2023-04-24T11:44:42;5.9;;;1.3;;
59653;SDS011;66556;52.008;5.432;2023-04-24T11:46:20;4.8;;;1.3;;
59653;SDS011;66556;52.008;5.432;2023-04-24T11:47:56;6.0;;;1.3;;
59653;SDS011;66556;52.008;5.432;2023-04-24T11:51:12;8.0;;;1.7;;
59653;SDS011;66556;52.008;5.432;2023-04-24T11:52:49;9.71;;;1.6;;
59653;SDS011;66556;52.008;5.432;2023-04-24T11:54:25;7.9;;;1.7;;
59653;SDS011;66556;52.008;5.432;2023-04-24T11:56:02;8.5;;;1.8;;
59653;SDS011;66556;52.008;5.432;2023-04-24T11:59:17;6.6;;;1.4;;
59653;SDS011;66556;52.008;5.432;2023-04-24T12:00:55;7.0;;;1.3;;
59653;SDS011;66556;52.008;5.432;2023-04-24T12:02:32;4.7;;;1.11;;
59653;SDS011;66556;52.008;5.432;2023-04-24T12:05:44;4.91;;;1.0;;
59653;SDS011;66556;52.008;5.432;2023-04-24T12:07:21;3.5;;;0.9;;
59653;SDS011;66556;52.008;5.432;2023-04-24T12:08:59;3.8;;;1.0;;
59653;SDS011;66556;52.008;5.432;2023-04-24T12:12:12;3.7;;;0.9;;
59653;SDS011;66556;52.008;5.432;2023-04-24T12:13:48;2.5;;;0.8;;
59653;SDS011;66556;52.008;5.432;2023-04-24T12:15:24;4.61;;;1.11;;
59653;SDS011;66556;52.008;5.432;2023-04-24T12:17:01;3.3;;;1.11;;
59653;SDS011;66556;52.008;5.432;2023-04-24T12:20:23;3.9;;;1.11;;
59653;SDS011;66556;52.008;5.432;2023-04-24T12:22:01;3.9;;;1.3;;
59653;SDS011;66556;52.008;5.432;2023-04-24T12:23:42;4.3;;;1.0;;
59653;SDS011;66556;52.008;5.432;2023-04-24T12:25:18;5.8;;;1.2;;
59653;SDS011;66556;52.008;5.432;2023-04-24T12:28:36;5.0;;;1.11;;
59653;SDS011;66556;52.008;5.432;2023-04-24T12:30:14;7.5;;;1.3;;
59653;SDS011;66556;52.008;5.432;2023-04-24T12:31:51;6.1;;;1.3;;
59653;SDS011;66556;52.008;5.432;2023-04-24T12:35:09;4.8;;;1.11;;
59653;SDS011;66556;52.008;5.432;2023-04-24T12:36:46;3.9;;;1.2;;
59653;SDS011;66556;52.008;5.432;2023-04-24T12:38:23;6.7;;;1.2;;
59653;SDS011;66556;52.008;5.432;2023-04-24T12:40:02;5.11;;;1.3;;
59653;SDS011;66556;52.008;5.432;2023-04-24T12:43:27;6.5;;;1.3;;
59653;SDS011;66556;52.008;5.432;2023-04-24T12:45:04;6.7;;;1.5;;
59653;SDS011;66556;52.008;5.432;2023-04-24T12:46:42;8.81;;;1.7;;
59653;SDS011;66556;52.008;5.432;2023-04-24T12:48:18;9.21;;;1.9;;
59653;SDS011;66556;52.008;5.432;2023-04-24T12:51:30;7.8;;;2.1;;
59653;SDS011;66556;52.008;5.432;2023-04-24T12:53:07;8.9;;;1.7;;